createdAt,value
2018-03-24T00:00:36.196Z,75.4
2018-03-24T00:01:46.072Z,75.21
2018-03-24T00:02:56.194Z,75.4
2018-03-24T00:04:05.919Z,75.31
2018-03-24T00:05:16.056Z,75.49
2018-03-24T00:06:25.887Z,75.49
2018-03-24T00:07:36.064Z,75.31
2018-03-24T00:08:46.309Z,75.68
2018-03-24T00:09:56.603Z,75.68
2018-03-24T00:11:06.493Z,75.68
2018-03-24T00:12:16.483Z,75.49
2018-03-24T00:13:26.758Z,75.78
2018-03-24T00:14:36.930Z,75.68
2018-03-24T00:15:47.094Z,76.06
2018-03-24T00:16:56.853Z,76.06
2018-03-24T00:18:06.451Z,75.87
2018-03-24T00:19:16.328Z,76.06
2018-03-24T00:20:26.307Z,75.96
2018-03-24T00:21:36.449Z,76.25
2018-03-24T00:22:46.365Z,75.96
2018-03-24T00:23:56.534Z,76.03
2018-03-24T00:25:06.053Z,76.44
2018-03-24T00:26:16.063Z,76.34
2018-03-24T00:27:26.181Z,76.21
2018-03-24T00:28:35.682Z,75.87
2018-03-24T00:29:45.951Z,76.73
2018-03-24T00:30:55.980Z,76.21
2018-03-24T00:32:05.526Z,76.44
2018-03-24T00:33:15.669Z,76.44
2018-03-24T00:34:25.170Z,76.73
2018-03-24T00:35:35.365Z,76.73
2018-03-24T00:36:44.865Z,76.44
2018-03-24T00:37:55.358Z,76.34
2018-03-24T00:39:05.121Z,76.34
2018-03-24T00:40:15.270Z,76.15
2018-03-24T00:41:26.023Z,76.25
2018-03-24T00:42:35.611Z,76.25
2018-03-24T00:43:45.791Z,76.54
2018-03-24T00:44:55.658Z,76.34
2018-03-24T00:46:04.903Z,76.44
2018-03-24T00:47:14.785Z,76.34
2018-03-24T00:48:25.143Z,76.25
2018-03-24T00:49:35.011Z,76.15
2018-03-24T00:50:44.861Z,76.34
2018-03-24T00:51:54.983Z,76.25
2018-03-24T00:53:05.096Z,76.06
2018-03-24T00:54:15.286Z,76.06
2018-03-24T00:55:25.547Z,76.06
2018-03-24T00:56:35.720Z,76.34
2018-03-24T00:57:45.851Z,76.25
2018-03-24T00:58:56.037Z,76.54
2018-03-24T01:00:05.969Z,76.4
2018-03-24T01:01:15.887Z,76.5
2018-03-24T01:02:25.998Z,76.68
2018-03-24T01:03:36.136Z,76.82
2018-03-24T01:04:46.328Z,76.87
2018-03-24T01:05:55.928Z,77.01
2018-03-24T01:07:05.549Z,77.01
2018-03-24T01:08:15.418Z,76.92
2018-03-24T01:09:25.530Z,76.82
2018-03-24T01:10:35.328Z,76.92
2018-03-24T01:11:45.199Z,76.92
2018-03-24T01:12:55.418Z,76.82
2018-03-24T01:14:05.547Z,77.01
2018-03-24T01:15:15.672Z,76.63
2018-03-24T01:16:25.815Z,76.92
2018-03-24T01:17:35.930Z,76.73
2018-03-24T01:18:45.823Z,77.11
2018-03-24T01:19:55.685Z,76.73
2018-03-24T01:21:05.543Z,76.73
2018-03-24T01:22:15.400Z,76.92
2018-03-24T01:23:25.630Z,76.82
2018-03-24T01:24:35.891Z,76.73
2018-03-24T01:25:46.026Z,76.73
2018-03-24T01:26:56.159Z,76.63
2018-03-24T01:28:06.294Z,77.01
2018-03-24T01:29:16.493Z,76.92
2018-03-24T01:30:26.096Z,77.29
2018-03-24T01:31:36.248Z,77.39
2018-03-24T01:32:46.097Z,76.92
2018-03-24T01:33:56.248Z,76.92
2018-03-24T01:35:06.154Z,76.92
2018-03-24T01:36:16.347Z,77.01
2018-03-24T01:37:26.498Z,76.73
2018-03-24T01:38:36.728Z,76.44
2018-03-24T01:39:46.981Z,76.92
2018-03-24T01:40:57.202Z,76.73
2018-03-24T01:42:07.379Z,76.92
2018-03-24T01:43:17.512Z,77.01
2018-03-24T01:44:27.464Z,77.01
2018-03-24T01:45:37.585Z,77.01
2018-03-24T01:46:47.340Z,76.82
2018-03-24T01:47:57.468Z,76.73
2018-03-24T01:49:08.325Z,76.82
2018-03-24T01:50:18.593Z,76.73
2018-03-24T01:51:28.448Z,76.73
2018-03-24T01:52:38.595Z,76.63
2018-03-24T01:53:48.791Z,76.73
2018-03-24T01:54:59.163Z,77.11
2018-03-24T01:56:09.327Z,76.73
2018-03-24T01:57:19.163Z,76.92
2018-03-24T01:58:29.176Z,76.73
2018-03-24T01:59:39.291Z,77.01
2018-03-24T02:00:49.056Z,76.73
2018-03-24T02:02:00.159Z,77.39
2018-03-24T02:03:09.676Z,77.58
2018-03-24T02:04:19.890Z,77.86
2018-03-24T02:05:29.667Z,77.58
2018-03-24T02:06:39.775Z,77.45
2018-03-24T02:07:49.924Z,77.64
2018-03-24T02:09:00.058Z,77.83
2018-03-24T02:10:10.454Z,77.64
2018-03-24T02:11:20.366Z,77.86
2018-03-24T02:12:30.806Z,77.48
2018-03-24T02:13:41.099Z,77.86
2018-03-24T02:14:50.608Z,77.86
2018-03-24T02:16:00.478Z,77.86
2018-03-24T02:17:10.789Z,77.77
2018-03-24T02:18:21.033Z,77.39
2018-03-24T02:19:31.170Z,77.29
2018-03-24T02:20:41.296Z,77.58
2018-03-24T02:21:51.666Z,77.58
2018-03-24T02:23:01.511Z,77.48
2018-03-24T02:24:11.721Z,77.48
2018-03-24T02:25:21.891Z,77.2
2018-03-24T02:26:32.071Z,77.39
2018-03-24T02:27:42.327Z,77.29
2018-03-24T02:28:52.218Z,77.11
2018-03-24T02:30:02.332Z,77.67
2018-03-24T02:31:12.532Z,77.86
2018-03-24T02:32:22.703Z,77.58
2018-03-24T02:33:32.584Z,77.83
2018-03-24T02:34:42.714Z,77.96
2018-03-24T02:35:52.358Z,77.86
2018-03-24T02:37:01.873Z,77.92
2018-03-24T02:38:12.043Z,77.54
2018-03-24T02:39:22.228Z,78.3
2018-03-24T02:40:32.391Z,78.2
2018-03-24T02:41:42.262Z,77.92
2018-03-24T02:42:52.025Z,77.83
2018-03-24T02:44:01.897Z,78.49
2018-03-24T02:45:12.118Z,78.49
2018-03-24T02:46:21.992Z,78.96
2018-03-24T02:47:32.174Z,78.96
2018-03-24T02:48:42.042Z,77.92
2018-03-24T02:49:51.673Z,78.11
2018-03-24T02:51:01.375Z,78.58
2018-03-24T02:52:11.770Z,78.58
2018-03-24T02:53:21.905Z,78.49
2018-03-24T02:54:32.035Z,78.58
2018-03-24T02:55:41.982Z,78.67
2018-03-24T02:56:52.361Z,78.58
2018-03-24T02:58:02.491Z,78.77
2018-03-24T02:59:12.634Z,78.39
2018-03-24T03:00:22.830Z,78.58
2018-03-24T03:01:32.695Z,78.2
2018-03-24T03:02:42.594Z,78.49
2018-03-24T03:03:52.827Z,78.58
2018-03-24T03:05:03.077Z,78.77
2018-03-24T03:06:13.293Z,78.58
2018-03-24T03:07:23.489Z,78.77
2018-03-24T03:08:33.646Z,78.67
2018-03-24T03:09:43.771Z,79.06
2018-03-24T03:10:53.946Z,79.06
2018-03-24T03:12:04.089Z,79.06
2018-03-24T03:13:14.534Z,78.96
2018-03-24T03:14:24.512Z,78.96
2018-03-24T03:15:34.952Z,78.77
2018-03-24T03:16:45.091Z,79.06
2018-03-24T03:17:55.233Z,78.96
2018-03-24T03:19:05.126Z,79.06
2018-03-24T03:20:15.620Z,79.06
2018-03-24T03:21:25.774Z,78.87
2018-03-24T03:22:35.647Z,78.87
2018-03-24T03:23:45.858Z,78.77
2018-03-24T03:24:55.976Z,78.77
2018-03-24T03:26:06.077Z,79.06
2018-03-24T03:27:15.972Z,79.15
2018-03-24T03:28:25.591Z,79.06
2018-03-24T03:29:35.452Z,78.67
2018-03-24T03:30:44.828Z,78.96
2018-03-24T03:31:54.485Z,78.87
2018-03-24T03:33:04.704Z,78.77
2018-03-24T03:34:15.392Z,78.87
2018-03-24T03:35:25.511Z,79.34
2018-03-24T03:36:35.728Z,78.77
2018-03-24T03:37:45.585Z,79.15
2018-03-24T03:38:55.186Z,79.06
2018-03-24T03:40:05.345Z,79.06
2018-03-24T03:41:15.233Z,79.06
2018-03-24T03:42:25.354Z,79.25
2018-03-24T03:43:35.509Z,79.25
2018-03-24T03:44:44.876Z,79.25
2018-03-24T03:45:55.099Z,79.15
2018-03-24T03:47:04.991Z,79.44
2018-03-24T03:48:15.139Z,79.25
2018-03-24T03:49:25.280Z,79.15
2018-03-24T03:50:35.163Z,79.25
2018-03-24T03:51:44.920Z,79.15
2018-03-24T03:52:55.040Z,78.96
2018-03-24T03:54:05.171Z,79.06
2018-03-24T03:55:15.350Z,79.15
2018-03-24T03:56:25.543Z,78.96
2018-03-24T03:57:35.509Z,79.91
2018-03-24T03:58:45.259Z,79.72
2018-03-24T03:59:55.130Z,78.96
2018-03-24T04:01:04.983Z,79.06
2018-03-24T04:02:14.849Z,79.15
2018-03-24T04:03:24.714Z,78.96
2018-03-24T04:04:34.673Z,79.82
2018-03-24T04:05:44.565Z,79.53
2018-03-24T04:06:54.198Z,79.72
2018-03-24T04:08:04.313Z,79.44
2018-03-24T04:09:14.528Z,79.44
2018-03-24T04:10:24.757Z,79.72
2018-03-24T04:11:34.647Z,79.44
2018-03-24T04:12:44.777Z,79.72
2018-03-24T04:13:54.970Z,79.47
2018-03-24T04:15:05.119Z,79.63
2018-03-24T04:16:14.613Z,79.63
2018-03-24T04:17:24.550Z,79.06
2018-03-24T04:18:34.438Z,79.25
2018-03-24T04:19:44.230Z,79.38
2018-03-24T04:20:54.406Z,78.87
2018-03-24T04:22:04.257Z,79.15
2018-03-24T04:23:13.765Z,79.06
2018-03-24T04:24:23.524Z,79.25
2018-03-24T04:25:33.394Z,79.06
2018-03-24T04:26:43.255Z,79.63
2018-03-24T04:27:53.151Z,79.63
2018-03-24T04:29:03.466Z,79.53
2018-03-24T04:30:13.352Z,79.47
2018-03-24T04:31:23.512Z,79.66
2018-03-24T04:32:33.628Z,79.76
2018-03-24T04:33:43.516Z,79.57
2018-03-24T04:34:53.726Z,79.57
2018-03-24T04:36:04.122Z,79.38
2018-03-24T04:37:14.010Z,79.72
2018-03-24T04:38:23.863Z,79.44
2018-03-24T04:39:34.061Z,79.44
2018-03-24T04:40:43.943Z,79.53
2018-03-24T04:41:54.061Z,79.34
2018-03-24T04:43:04.165Z,79.44
2018-03-24T04:44:14.002Z,80.1
2018-03-24T04:45:24.162Z,79.44
2018-03-24T04:46:34.375Z,79.34
2018-03-24T04:47:44.526Z,80
2018-03-24T04:48:54.929Z,79.91
2018-03-24T04:50:06.035Z,80.1
2018-03-24T04:51:16.266Z,79.72
2018-03-24T04:52:26.519Z,79.72
2018-03-24T04:53:36.690Z,80.19
2018-03-24T04:54:46.867Z,80.38
2018-03-24T04:55:56.998Z,80.48
2018-03-24T04:57:07.271Z,80.38
2018-03-24T04:58:17.474Z,80.38
2018-03-24T04:59:27.377Z,80.19
2018-03-24T05:00:37.512Z,80.38
2018-03-24T05:01:47.650Z,80.29
2018-03-24T05:02:57.400Z,80.38
2018-03-24T05:04:07.556Z,80.1
2018-03-24T05:05:17.490Z,80.29
2018-03-24T05:06:27.679Z,80
2018-03-24T05:07:37.816Z,79.82
2018-03-24T05:08:48.157Z,80.29
2018-03-24T05:09:58.264Z,80.38
2018-03-24T05:11:07.869Z,80.48
2018-03-24T05:12:17.977Z,80.38
2018-03-24T05:13:27.873Z,80.1
2018-03-24T05:14:38.136Z,80.19
2018-03-24T05:15:48.291Z,80
2018-03-24T05:16:58.403Z,80.29
2018-03-24T05:18:08.548Z,80.19
2018-03-24T05:19:18.695Z,80.19
2018-03-24T05:20:28.455Z,80.19
2018-03-24T05:21:38.318Z,80.19
2018-03-24T05:22:48.422Z,80.29
2018-03-24T05:23:58.556Z,80.38
2018-03-24T05:25:08.695Z,80.29
2018-03-24T05:26:18.900Z,80.29
2018-03-24T05:27:29.183Z,80.19
2018-03-24T05:28:39.352Z,80.38
2018-03-24T05:29:49.516Z,79.91
2018-03-24T05:30:59.851Z,79.91
2018-03-24T05:32:10.156Z,79.82
2018-03-24T05:33:20.449Z,80.19
2018-03-24T05:34:30.630Z,80.38
2018-03-24T05:35:40.843Z,80.29
2018-03-24T05:36:50.713Z,80.29
2018-03-24T05:38:00.851Z,80.29
2018-03-24T05:39:10.729Z,80
2018-03-24T05:40:20.613Z,80.19
2018-03-24T05:41:30.477Z,80.29
2018-03-24T05:42:40.606Z,80.19
2018-03-24T05:43:50.605Z,80.1
2018-03-24T05:45:00.751Z,80.57
2018-03-24T05:46:10.901Z,80.38
2018-03-24T05:47:21.077Z,80.48
2018-03-24T05:48:30.915Z,80.29
2018-03-24T05:49:40.712Z,80.29
2018-03-24T05:50:51.789Z,80.38
2018-03-24T05:52:01.662Z,80.29
2018-03-24T05:53:11.424Z,80.24
2018-03-24T05:54:21.561Z,80.43
2018-03-24T05:55:31.421Z,80.43
2018-03-24T05:56:40.957Z,80.38
2018-03-24T05:57:51.084Z,80.24
2018-03-24T05:59:01.226Z,80.04
2018-03-24T06:00:11.434Z,80.04
2018-03-24T06:01:21.582Z,80.14
2018-03-24T06:02:31.739Z,80.04
2018-03-24T06:03:41.658Z,79.38
2018-03-24T06:04:51.880Z,79.91
2018-03-24T06:06:02.126Z,79.91
2018-03-24T06:07:12.328Z,79.82
2018-03-24T06:08:22.432Z,79.91
2018-03-24T06:09:32.591Z,80
2018-03-24T06:10:42.713Z,79.82
2018-03-24T06:11:52.867Z,79.82
2018-03-24T06:13:02.747Z,79.82
2018-03-24T06:14:12.878Z,80
2018-03-24T06:15:23.005Z,79.82
2018-03-24T06:16:33.269Z,79.91
2018-03-24T06:17:43.438Z,79.91
2018-03-24T06:18:53.294Z,80.04
2018-03-24T06:20:03.462Z,79.63
2018-03-24T06:21:13.598Z,79.25
2018-03-24T06:22:23.751Z,79.91
2018-03-24T06:23:33.887Z,79.72
2018-03-24T06:24:44.041Z,79.91
2018-03-24T06:25:53.935Z,79.82
2018-03-24T06:27:04.150Z,79.82
2018-03-24T06:28:14.337Z,80
2018-03-24T06:29:24.479Z,80
2018-03-24T06:30:34.596Z,79.66
2018-03-24T06:31:44.736Z,79.38
2018-03-24T06:32:54.869Z,79.66
2018-03-24T06:34:05.031Z,79.66
2018-03-24T06:35:15.190Z,79.38
2018-03-24T06:36:25.450Z,79.47
2018-03-24T06:37:35.695Z,79.28
2018-03-24T06:38:45.828Z,79.19
2018-03-24T06:39:55.774Z,79.28
2018-03-24T06:41:05.905Z,79.19
2018-03-24T06:42:16.060Z,78.81
2018-03-24T06:43:25.956Z,78.81
2018-03-24T06:44:36.115Z,79
2018-03-24T06:45:46.420Z,78.91
2018-03-24T06:46:56.573Z,79.19
2018-03-24T06:48:06.745Z,78.81
2018-03-24T06:49:16.957Z,78.72
2018-03-24T06:50:27.122Z,78.62
2018-03-24T06:51:37.364Z,78.34
2018-03-24T06:52:47.551Z,78.81
2018-03-24T06:53:57.797Z,78.43
2018-03-24T06:55:08.090Z,78.43
2018-03-24T06:56:18.488Z,78.24
2018-03-24T06:57:28.614Z,77.9
2018-03-24T06:58:38.863Z,78.66
2018-03-24T06:59:49.048Z,78.05
2018-03-24T07:00:59.204Z,78.15
2018-03-24T07:02:09.073Z,78
2018-03-24T07:03:18.860Z,78.38
2018-03-24T07:04:28.658Z,78.24
2018-03-24T07:05:38.786Z,78.28
2018-03-24T07:06:49.025Z,78.56
2018-03-24T07:07:59.159Z,77.81
2018-03-24T07:09:09.264Z,77.81
2018-03-24T07:10:19.468Z,78
2018-03-24T07:11:29.413Z,77.71
2018-03-24T07:12:39.556Z,77.33
2018-03-24T07:13:49.311Z,77.18
2018-03-24T07:14:59.485Z,76.99
2018-03-24T07:16:09.382Z,76.99
2018-03-24T07:17:19.512Z,76.8
2018-03-24T07:18:29.666Z,76.8
2018-03-24T07:19:39.555Z,76.8
2018-03-24T07:20:49.687Z,76.32
2018-03-24T07:21:59.835Z,76.14
2018-03-24T07:23:09.726Z,76.27
2018-03-24T07:24:19.969Z,75.7
2018-03-24T07:25:30.072Z,75.7
2018-03-24T07:26:40.198Z,75.7
2018-03-24T07:27:50.426Z,74.94
2018-03-24T07:29:00.375Z,74.94
2018-03-24T07:30:10.360Z,75.04
2018-03-24T07:31:20.521Z,74.66
2018-03-24T07:32:30.712Z,74.27
2018-03-24T07:33:40.845Z,74.18
2018-03-24T07:34:51.237Z,74.08
2018-03-24T07:36:01.371Z,74.27
2018-03-24T07:37:11.421Z,74.18
2018-03-24T07:38:21.391Z,73.99
2018-03-24T07:39:31.581Z,73.55
2018-03-24T07:40:41.723Z,73.27
2018-03-24T07:41:51.860Z,73.65
2018-03-24T07:43:02.010Z,73.27
2018-03-24T07:44:12.136Z,73.08
2018-03-24T07:45:22.000Z,72.89
2018-03-24T07:46:32.136Z,72.79
2018-03-24T07:47:42.365Z,72.74
2018-03-24T07:48:52.496Z,72.55
2018-03-24T07:50:02.297Z,72.55
2018-03-24T07:51:12.521Z,72.26
2018-03-24T07:52:22.648Z,71.88
2018-03-24T07:53:32.991Z,71.88
2018-03-24T07:54:43.400Z,71.69
2018-03-24T07:55:54.638Z,71.31
2018-03-24T07:57:05.048Z,71.41
2018-03-24T07:58:14.938Z,71.5
2018-03-24T07:59:24.846Z,71.59
2018-03-24T08:00:34.770Z,71.31
2018-03-24T08:01:44.921Z,71.15
2018-03-24T08:02:54.883Z,70.77
2018-03-24T08:04:05.047Z,70.77
2018-03-24T08:05:15.285Z,70.68
2018-03-24T08:06:25.430Z,70.3
2018-03-24T08:07:35.609Z,70.68
2018-03-24T08:08:45.496Z,70.1
2018-03-24T08:09:55.662Z,69.63
2018-03-24T08:11:05.799Z,69.76
2018-03-24T08:12:15.938Z,69.38
2018-03-24T08:13:26.145Z,69
2018-03-24T08:14:36.301Z,69.1
2018-03-24T08:15:46.214Z,68.62
2018-03-24T08:16:56.008Z,68.33
2018-03-24T08:18:06.175Z,67.95
2018-03-24T08:19:15.962Z,67.99
2018-03-24T08:20:25.872Z,67.89
2018-03-24T08:21:35.391Z,67.8
2018-03-24T08:22:44.963Z,67.32
2018-03-24T08:23:55.221Z,67.7
2018-03-24T08:25:05.120Z,67.7
2018-03-24T08:26:15.011Z,67.7
2018-03-24T08:27:24.952Z,67.51
2018-03-24T08:28:34.838Z,67.51
2018-03-24T08:29:44.746Z,66.94
2018-03-24T08:30:54.786Z,66.75
2018-03-24T08:32:04.956Z,66.85
2018-03-24T08:33:15.171Z,66.75
2018-03-24T08:34:24.963Z,66.37
2018-03-24T08:35:35.100Z,66.46
2018-03-24T08:36:44.761Z,66.02
2018-03-24T08:37:54.989Z,65.29
2018-03-24T08:39:04.895Z,65.42
2018-03-24T08:40:15.061Z,65.04
2018-03-24T08:41:24.621Z,64.69
2018-03-24T08:42:34.824Z,63.57
2018-03-24T08:43:44.074Z,63.03
2018-03-24T08:44:53.943Z,62.4
2018-03-24T08:46:04.137Z,61.35
2018-03-24T08:47:14.295Z,59.94
2018-03-24T08:48:23.669Z,59.56
2018-03-24T08:49:33.806Z,58.51
2018-03-24T08:50:43.677Z,58.12
2018-03-24T08:51:53.851Z,58.22
2018-03-24T08:53:04.005Z,57.55
2018-03-24T08:54:14.157Z,57.55
2018-03-24T08:55:24.118Z,57.55
2018-03-24T08:56:34.363Z,56.91
2018-03-24T08:57:44.602Z,56.72
2018-03-24T08:58:54.789Z,56.56
2018-03-24T09:00:04.436Z,55.98
2018-03-24T09:01:14.612Z,54.96
2018-03-24T09:02:24.914Z,54.96
2018-03-24T09:03:35.123Z,54.12
2018-03-24T09:04:45.057Z,53.64
2018-03-24T09:05:54.950Z,53.07
2018-03-24T09:07:05.088Z,53.55
2018-03-24T09:08:14.964Z,53.23
2018-03-24T09:09:24.611Z,53.42
2018-03-24T09:10:34.503Z,53.2
2018-03-24T09:11:44.641Z,53.02
2018-03-24T09:12:54.845Z,53.11
2018-03-24T09:14:05.178Z,53.11
2018-03-24T09:15:15.339Z,53.02
2018-03-24T09:16:25.506Z,52.83
2018-03-24T09:17:35.322Z,52.73
2018-03-24T09:18:45.462Z,52.28
2018-03-24T09:19:55.388Z,51.18
2018-03-24T09:21:05.129Z,50.43
2018-03-24T09:22:15.120Z,49.21
2018-03-24T09:23:25.138Z,48.79
2018-03-24T09:24:36.258Z,47.63
2018-03-24T09:25:45.904Z,46.59
2018-03-24T09:26:56.050Z,46.33
2018-03-24T09:28:05.943Z,45.95
2018-03-24T09:29:16.552Z,45.2
2018-03-24T09:30:26.626Z,44.26
2018-03-24T09:31:36.980Z,43.61
2018-03-24T09:32:47.677Z,43.41
2018-03-24T09:35:11.981Z,42.09
2018-03-24T09:36:21.914Z,40.66
2018-03-24T09:37:31.937Z,40.57
2018-03-24T09:38:42.120Z,39.31
2018-03-24T09:39:52.018Z,39.31
2018-03-24T09:41:01.585Z,38.74
2018-03-24T09:42:11.776Z,38.54
2018-03-24T09:43:22.015Z,38.54
2018-03-24T09:44:32.305Z,38.37
2018-03-24T09:45:42.556Z,38.28
2018-03-24T09:46:52.798Z,37.21
2018-03-24T09:48:02.737Z,36.44
2018-03-24T09:49:12.898Z,36.44
2018-03-24T09:50:23.185Z,36.15
2018-03-24T09:51:33.394Z,35.48
2018-03-24T09:52:44.845Z,36.23
2018-03-24T09:53:55.176Z,36.13
2018-03-24T09:55:05.393Z,36.33
2018-03-24T09:56:15.231Z,36.33
2018-03-24T09:57:25.250Z,36.52
2018-03-24T09:58:35.153Z,35.75
2018-03-24T09:59:45.057Z,35.65
2018-03-24T10:00:55.310Z,35.36
2018-03-24T10:02:05.491Z,34.61
2018-03-24T10:03:15.677Z,34.53
2018-03-24T10:04:25.301Z,34.82
2018-03-24T10:05:35.267Z,34.05
2018-03-24T10:06:45.083Z,33.76
2018-03-24T10:07:55.277Z,34.05
2018-03-24T10:09:05.471Z,33.76
2018-03-24T10:10:15.685Z,33.76
2018-03-24T10:11:26.049Z,33.47
2018-03-24T10:12:35.964Z,32.99
2018-03-24T10:13:45.882Z,33.17
2018-03-24T10:14:55.650Z,33.44
2018-03-24T10:16:05.562Z,32.47
2018-03-24T10:17:15.218Z,33.05
2018-03-24T10:18:25.419Z,33.25
2018-03-24T10:19:35.349Z,33.63
2018-03-24T10:20:45.004Z,33.34
2018-03-24T10:21:59.056Z,33.15
2018-03-24T10:23:08.852Z,32.95
2018-03-24T10:24:18.849Z,32.86
2018-03-24T10:25:29.060Z,32.86
2018-03-24T10:26:38.341Z,32.67
2018-03-24T10:27:48.245Z,32.38
2018-03-24T10:28:58.903Z,32.18
2018-03-24T10:30:09.112Z,32.28
2018-03-24T10:31:19.261Z,32.38
2018-03-24T10:32:29.460Z,32.26
2018-03-24T10:33:39.609Z,32.26
2018-03-24T10:34:49.884Z,32.26
2018-03-24T10:36:00.085Z,32.17
2018-03-24T10:37:10.349Z,32.65
2018-03-24T10:38:20.536Z,32.84
2018-03-24T10:39:30.697Z,32.94
2018-03-24T10:40:40.906Z,32.84
2018-03-24T10:41:51.116Z,32.28
2018-03-24T10:43:01.374Z,31.99
2018-03-24T10:44:11.524Z,31.9
2018-03-24T10:45:21.739Z,31.88
2018-03-24T10:46:31.972Z,32.07
2018-03-24T10:47:42.840Z,32.36
2018-03-24T10:48:52.729Z,32.56
2018-03-24T10:50:02.928Z,32.75
2018-03-24T10:51:13.089Z,32.76
2018-03-24T10:52:23.255Z,32.28
2018-03-24T10:53:33.254Z,32.28
2018-03-24T10:54:43.195Z,31.9
2018-03-24T10:55:53.138Z,31.8
2018-03-24T10:57:04.289Z,31.9
2018-03-24T10:58:14.268Z,31.7
2018-03-24T10:59:25.471Z,31.9
2018-03-24T11:00:35.362Z,32.1
2018-03-24T11:01:45.542Z,31.72
2018-03-24T11:02:55.708Z,31.24
2018-03-24T11:04:06.011Z,31.52
2018-03-24T11:05:15.957Z,31.41
2018-03-24T11:06:25.769Z,31.33
2018-03-24T11:07:36.054Z,30.58
2018-03-24T11:08:46.307Z,30.29
2018-03-24T11:09:56.507Z,30.1
2018-03-24T11:11:06.811Z,30.08
2018-03-24T11:12:16.718Z,30.08
2018-03-24T11:13:26.753Z,29.89
2018-03-24T11:14:36.914Z,30.07
2018-03-24T11:15:47.113Z,30.53
2018-03-24T11:16:57.092Z,30.53
2018-03-24T11:18:06.726Z,30.63
2018-03-24T11:19:16.560Z,30.91
2018-03-24T11:20:26.418Z,31.01
2018-03-24T11:21:36.634Z,30.8
2018-03-24T11:22:46.556Z,31.37
2018-03-24T11:23:56.533Z,32.04
2018-03-24T11:25:06.712Z,32.43
2018-03-24T11:26:16.878Z,32.23
2018-03-24T11:27:26.923Z,31.75
2018-03-24T11:28:36.705Z,32.23
2018-03-24T11:29:46.184Z,31.95
2018-03-24T11:30:56.165Z,31.74
2018-03-24T11:32:05.809Z,32.7
2018-03-24T11:33:15.709Z,33.26
2018-03-24T11:34:26.892Z,33.99
2018-03-24T11:35:37.062Z,34.45
2018-03-24T11:36:47.339Z,34.84
2018-03-24T11:37:57.270Z,35.21
2018-03-24T11:39:07.461Z,35.77
2018-03-24T11:40:18.355Z,36.22
2018-03-24T11:41:28.532Z,36.49
2018-03-24T11:42:38.530Z,37.24
2018-03-24T11:43:48.149Z,37.92
2018-03-24T11:44:57.903Z,38.09
2018-03-24T11:46:08.186Z,38.09
2018-03-24T11:47:18.105Z,38.83
2018-03-24T11:48:28.038Z,38.85
2018-03-24T11:49:37.606Z,38.96
2018-03-24T11:50:47.478Z,38.89
2018-03-24T11:51:57.143Z,39.08
2018-03-24T11:53:07.366Z,39.1
2018-03-24T11:54:17.620Z,37.68
2018-03-24T11:55:27.537Z,36.46
2018-03-24T11:56:37.742Z,35.99
2018-03-24T11:57:47.735Z,35.89
2018-03-24T11:58:57.635Z,35.51
2018-03-24T12:00:07.795Z,35.34
2018-03-24T12:01:17.686Z,35.42
2018-03-24T12:02:27.856Z,35.43
2018-03-24T12:03:37.643Z,35.42
2018-03-24T12:04:47.634Z,35.32
2018-03-24T12:05:57.963Z,35.88
2018-03-24T12:07:07.925Z,36.15
2018-03-24T12:08:17.877Z,36.61
2018-03-24T12:09:27.864Z,37.36
2018-03-24T12:10:38.040Z,37.72
2018-03-24T12:11:47.881Z,38.01
2018-03-24T12:12:58.062Z,37.92
2018-03-24T12:14:08.248Z,38.12
2018-03-24T12:15:18.398Z,37.93
2018-03-24T12:16:28.400Z,37.66
2018-03-24T12:17:38.605Z,37.85
2018-03-24T12:18:48.545Z,37.2
2018-03-24T12:19:58.741Z,36.93
2018-03-24T12:21:08.390Z,36.65
2018-03-24T12:22:18.356Z,36.28
2018-03-24T12:23:28.264Z,35.91
2018-03-24T12:24:38.529Z,35.05
2018-03-24T12:25:48.148Z,34.68
2018-03-24T12:26:58.100Z,34.2
2018-03-24T12:28:08.299Z,33.54
2018-03-24T12:29:18.650Z,32.97
2018-03-24T12:30:28.647Z,32.7
2018-03-24T12:31:38.569Z,32.23
2018-03-24T12:32:48.729Z,32.33
2018-03-24T12:33:58.720Z,32.34
2018-03-24T12:35:08.734Z,31.77
2018-03-24T12:36:18.430Z,31.57
2018-03-24T12:37:29.805Z,31.09
2018-03-24T12:38:39.463Z,30.42
2018-03-24T12:39:49.685Z,30.71
2018-03-24T12:41:00.079Z,30.9
2018-03-24T12:42:10.124Z,30.8
2018-03-24T12:43:20.206Z,30.8
2018-03-24T12:44:30.597Z,30.8
2018-03-24T12:45:40.758Z,30.61
2018-03-24T12:46:51.912Z,30.42
2018-03-24T12:48:02.134Z,30.61
2018-03-24T12:49:12.380Z,30.88
2018-03-24T12:50:22.323Z,31.26
2018-03-24T12:51:32.440Z,31.53
2018-03-24T12:52:42.614Z,32.28
2018-03-24T12:53:52.817Z,32.75
2018-03-24T12:55:03.471Z,32.46
2018-03-24T12:56:14.069Z,33.01
2018-03-24T12:57:24.637Z,33.58
2018-03-24T12:58:35.139Z,34.06
2018-03-24T12:59:45.620Z,34.33
2018-03-24T13:00:56.438Z,34.71
2018-03-24T13:02:06.668Z,34.79
2018-03-24T13:03:17.696Z,35.25
2018-03-24T13:04:29.183Z,35.53
2018-03-24T13:05:39.954Z,35.63
2018-03-24T13:06:50.133Z,35.73
2018-03-24T13:08:00.299Z,35.71
2018-03-24T13:09:10.935Z,35.71
2018-03-24T13:10:21.330Z,36
2018-03-24T13:11:31.519Z,36.29
2018-03-24T13:12:41.622Z,36.38
2018-03-24T13:13:51.855Z,36.29
2018-03-24T13:15:02.328Z,36.4
2018-03-24T13:16:12.443Z,36.59
2018-03-24T13:17:21.886Z,36.59
2018-03-24T13:18:33.224Z,36.71
2018-03-24T13:19:43.709Z,36.51
2018-03-24T13:20:54.298Z,36.51
2018-03-24T13:22:04.459Z,36.51
2018-03-24T13:23:14.666Z,36.51
2018-03-24T13:24:25.162Z,36.71
2018-03-24T13:25:35.701Z,37.18
2018-03-24T13:26:45.947Z,36.8
2018-03-24T13:27:56.156Z,37.09
2018-03-24T13:29:06.075Z,37.18
2018-03-24T13:30:15.615Z,37.18
2018-03-24T13:31:26.160Z,37.85
2018-03-24T13:32:36.252Z,37.74
2018-03-24T13:33:46.545Z,38.22
2018-03-24T13:34:56.127Z,38.41
2018-03-24T13:36:06.365Z,38.87
2018-03-24T13:37:16.676Z,39.16
2018-03-24T13:38:26.601Z,39.45
2018-03-24T13:39:36.425Z,40
2018-03-24T13:40:46.613Z,40.09
2018-03-24T13:41:56.797Z,40.84
2018-03-24T13:43:06.951Z,40.75
2018-03-24T13:44:17.351Z,41.2
2018-03-24T13:45:27.835Z,41.39
2018-03-24T13:46:38.085Z,41.49
2018-03-24T13:47:48.310Z,41.78
2018-03-24T13:48:58.202Z,41.97
2018-03-24T13:50:08.351Z,42.07
2018-03-24T13:51:18.278Z,42.43
2018-03-24T13:52:28.460Z,42.52
2018-03-24T13:53:38.672Z,42.52
2018-03-24T13:54:48.847Z,42.61
2018-03-24T13:55:59.074Z,42.9
2018-03-24T13:57:09.244Z,43
2018-03-24T13:58:19.133Z,43.09
2018-03-24T13:59:29.344Z,42.71
2018-03-24T14:00:39.538Z,42.61
2018-03-24T14:01:49.904Z,42.61
2018-03-24T14:03:00.112Z,42.9
2018-03-24T14:04:11.369Z,42.31
2018-03-24T14:05:21.514Z,42.69
2018-03-24T14:06:31.418Z,42.97
2018-03-24T14:07:41.578Z,42.88
2018-03-24T14:08:51.764Z,42.79
2018-03-24T14:10:01.940Z,42.69
2018-03-24T14:11:12.122Z,42.5
2018-03-24T14:12:22.021Z,42.21
2018-03-24T14:13:32.228Z,42.6
2018-03-24T14:14:42.376Z,42.31
2018-03-24T14:15:52.556Z,42.6
2018-03-24T14:17:02.842Z,42.5
2018-03-24T14:18:13.018Z,42.6
2018-03-24T14:19:23.212Z,42.11
2018-03-24T14:20:33.378Z,42.02
2018-03-24T14:21:43.672Z,42.69
2018-03-24T14:22:53.917Z,42.4
2018-03-24T14:24:04.182Z,42.69
2018-03-24T14:25:14.458Z,42.79
2018-03-24T14:26:24.656Z,43.07
2018-03-24T14:27:34.814Z,42.97
2018-03-24T14:28:44.718Z,43.17
2018-03-24T14:29:54.879Z,43.17
2018-03-24T14:31:06.074Z,43.36
2018-03-24T14:32:16.206Z,44.02
2018-03-24T14:33:26.384Z,44.02
2018-03-24T14:34:36.538Z,44.02
2018-03-24T14:35:46.761Z,43.93
2018-03-24T14:36:56.975Z,43.84
2018-03-24T14:38:07.270Z,43.84
2018-03-24T14:39:17.526Z,44.12
2018-03-24T14:40:27.716Z,44.22
2018-03-24T14:41:37.891Z,44.02
2018-03-24T14:42:47.800Z,44.12
2018-03-24T14:43:57.966Z,44.12
2018-03-24T14:45:08.218Z,44.02
2018-03-24T14:46:18.108Z,44.22
2018-03-24T14:47:28.303Z,43.84
2018-03-24T14:48:38.238Z,44.31
2018-03-24T14:49:48.461Z,44.22
2018-03-24T14:50:58.616Z,44.02
2018-03-24T14:52:08.790Z,44.12
2018-03-24T14:53:18.692Z,43.93
2018-03-24T14:54:28.566Z,43.74
2018-03-24T14:55:38.759Z,43.84
2018-03-24T14:56:48.927Z,43.93
2018-03-24T14:57:59.154Z,43.93
2018-03-24T14:59:09.553Z,43.93
2018-03-24T15:00:19.688Z,43.74
2018-03-24T15:01:29.855Z,44.12
2018-03-24T15:02:39.839Z,44.22
2018-03-24T15:03:50.836Z,44.12
2018-03-24T15:05:01.083Z,44.02
2018-03-24T15:06:11.223Z,44.51
2018-03-24T15:07:21.024Z,44.89
2018-03-24T15:08:45.754Z,45.08